Time;durP1;ratioP1;P1;durP2;ratioP2;P2;SDS_P1;SDS_P2;PMS_P1;PMS_P2;Temp;Humidity;BMP_temperature;BMP_pressure;BME280_temperature;BME280_humidity;BME280_pressure;Samples;Min_cycle;Max_cycle;Signal;HPM_P1;HPM_P2
2022/12/17 13:07:05;;;;;;;14.30;11.83;;;16.00;75.50;;;;;;4171368;28;20188;-77
2022/12/17 13:09:32;;;;;;;14.47;11.57;;;16.00;75.80;;;;;;4178993;28;20612;-77
2022/12/17 13:11:38;;;;;;;15.77;11.70;;;15.90;75.50;;;;;;4178373;28;20245;-77
2022/12/17 13:13:54;;;;;;;13.70;11.03;;;16.00;74.50;;;;;;4174891;28;20220;-77
2022/12/17 13:16:02;;;;;;;14.10;11.60;;;16.00;76.20;;;;;;4172983;28;20234;-76
2022/12/17 13:18:17;;;;;;;12.83;11.23;;;16.00;74.30;;;;;;4172983;28;20220;-77
2022/12/17 13:20:28;;;;;;;14.13;10.87;;;15.90;76.30;;;;;;4173606;28;20215;-77
2022/12/17 13:22:33;;;;;;;12.90;11.17;;;15.90;75.60;;;;;;4179100;28;20245;-77
2022/12/17 13:24:35;;;;;;;13.43;10.90;;;15.90;76.20;;;;;;4169434;28;20220;-77
2022/12/17 13:26:44;;;;;;;13.00;10.27;;;15.90;76.40;;;;;;4175355;28;20554;-77
2022/12/17 13:28:58;;;;;;;14.23;10.50;;;15.90;75.40;;;;;;4178618;28;20226;-77
2022/12/17 13:31:04;;;;;;;14.13;11.10;;;15.90;75.50;;;;;;4169110;28;20245;-77
2022/12/17 13:33:22;;;;;;;13.00;10.83;;;16.00;74.70;;;;;;4178232;28;20235;-77
2022/12/17 13:35:33;;;;;;;14.30;10.87;;;15.90;75.10;;;;;;4178761;28;20239;-77
2022/12/17 13:37:44;;;;;;;12.70;10.37;;;15.90;75.80;;;;;;4168120;28;20297;-77
2022/12/17 13:39:56;;;;;;;14.97;11.03;;;15.90;75.90;;;;;;4170984;28;20629;-77
2022/12/17 13:41:59;;;;;;;12.90;10.90;;;15.90;76.20;;;;;;4173581;28;20271;-76
2022/12/17 13:44:03;;;;;;;13.13;10.87;;;15.90;75.40;;;;;;4174235;28;20212;-77
2022/12/17 13:46:06;;;;;;;13.57;11.07;;;15.90;75.80;;;;;;4177143;28;20216;-77
2022/12/17 13:48:20;;;;;;;11.63;10.13;;;15.90;75.80;;;;;;4173630;28;20270;-77
2022/12/17 13:50:25;;;;;;;12.50;10.40;;;15.90;76.50;;;;;;4177513;28;20261;-77
2022/12/17 13:52:28;;;;;;;12.67;10.43;;;15.90;75.80;;;;;;4178509;28;20216;-76
2022/12/17 13:54:33;;;;;;;13.67;10.83;;;15.80;76.00;;;;;;4174304;28;20231;-77
2022/12/17 13:56:37;;;;;;;12.33;10.97;;;15.90;75.80;;;;;;4178387;28;20216;-77
2022/12/17 13:58:39;;;;;;;12.53;10.73;;;15.80;76.40;;;;;;4177681;28;20277;-77
2022/12/17 14:00:42;;;;;;;12.45;10.27;;;15.90;75.40;;;;;;4175680;28;20223;-77
2022/12/17 14:02:44;;;;;;;13.23;10.53;;;15.80;74.80;;;;;;4178771;28;20265;-77
2022/12/17 14:04:52;;;;;;;12.40;9.93;;;15.80;75.90;;;;;;4180709;28;20600;-77
2022/12/17 14:06:58;;;;;;;12.40;9.87;;;15.90;76.00;;;;;;4170241;28;20215;-77
2022/12/17 14:09:02;;;;;;;12.10;10.03;;;15.80;76.80;;;;;;4181440;28;20219;-77
2022/12/17 14:13:25;;;;;;;12.23;10.07;;;15.90;75.80;;;;;;4180411;28;20207;-77
2022/12/17 14:15:30;;;;;;;13.30;10.50;;;15.80;75.90;;;;;;4181208;28;20224;-77
2022/12/17 14:17:38;;;;;;;11.43;9.90;;;15.80;75.90;;;;;;4176486;28;20234;-77
2022/12/17 14:19:40;;;;;;;12.47;10.67;;;15.80;75.50;;;;;;4181315;28;20258;-77
2022/12/17 14:21:43;;;;;;;12.33;9.93;;;15.90;76.60;;;;;;4181445;28;20216;-77
2022/12/17 14:23:48;;;;;;;12.60;10.13;;;15.80;76.30;;;;;;4178360;28;20269;-76
2022/12/17 14:25:50;;;;;;;12.73;10.83;;;15.80;76.10;;;;;;4175194;28;20717;-77
2022/12/17 14:27:57;;;;;;;11.90;9.50;;;15.80;75.40;;;;;;4180375;28;20211;-76
2022/12/17 14:30:00;;;;;;;11.23;9.37;;;15.80;76.00;;;;;;4176667;28;20224;-77
2022/12/17 14:32:21;;;;;;;13.80;10.73;;;15.80;76.30;;;;;;4181400;28;20266;-76
2022/12/17 14:34:24;;;;;;;10.93;9.10;;;15.80;76.00;;;;;;4178260;28;20219;-77
2022/12/17 14:36:27;;;;;;;11.27;9.70;;;15.80;76.40;;;;;;4174299;28;20634;-77
2022/12/17 14:38:30;;;;;;;12.63;9.70;;;15.80;75.60;;;;;;4181526;28;20992;-77
2022/12/17 14:40:32;;;;;;;12.07;9.70;;;15.80;75.80;;;;;;4178348;28;20212;-77
2022/12/17 14:42:35;;;;;;;11.93;9.93;;;15.80;76.00;;;;;;4177565;28;20667;-77
2022/12/17 14:44:50;;;;;;;12.40;9.90;;;15.70;77.00;;;;;;4181145;28;20270;-77
2022/12/17 14:47:07;;;;;;;11.37;9.33;;;15.80;76.40;;;;;;4176579;28;20212;-77
2022/12/17 14:49:17;;;;;;;12.07;9.33;;;15.80;76.10;;;;;;4175039;28;20220;-76
2022/12/17 14:51:25;;;;;;;11.53;9.53;;;15.80;76.10;;;;;;4176731;28;20219;-77
2022/12/17 14:53:28;;;;;;;10.23;8.97;;;15.80;76.60;;;;;;4175598;28;20285;-77
2022/12/17 14:55:36;;;;;;;13.17;9.97;;;15.70;76.30;;;;;;4180465;28;20289;-77
2022/12/17 14:57:38;;;;;;;11.03;9.30;;;15.70;75.50;;;;;;4181317;28;20237;-77
2022/12/17 14:59:42;;;;;;;11.63;9.50;;;15.70;76.50;;;;;;4174350;28;20254;-77
2022/12/17 15:01:44;;;;;;;12.53;10.27;;;15.70;77.00;;;;;;4181258;28;20641;-77
2022/12/17 15:03:47;;;;;;;10.30;9.20;;;15.70;76.90;;;;;;4180665;28;20246;-72
2022/12/17 15:05:52;;;;;;;12.73;9.87;;;15.70;76.30;;;;;;4176315;28;20262;-72
2022/12/17 15:07:55;;;;;;;12.60;9.80;;;15.70;75.80;;;;;;4181145;28;20274;-72
2022/12/17 15:09:58;;;;;;;10.87;9.00;;;15.70;76.70;;;;;;4171596;28;20257;-72
2022/12/17 15:12:00;;;;;;;10.47;9.07;;;15.70;76.30;;;;;;4173335;28;20304;-72
2022/12/17 15:14:02;;;;;;;11.77;9.50;;;15.70;76.50;;;;;;4180593;28;20216;-72
2022/12/17 15:16:07;;;;;;;11.97;9.60;;;15.70;76.60;;;;;;4179041;28;20258;-72
2022/12/17 15:18:13;;;;;;;12.93;10.40;;;15.70;76.30;;;;;;4177206;28;20220;-72
2022/12/17 15:20:18;;;;;;;12.17;9.53;;;15.60;76.50;;;;;;4180454;28;20651;-72
2022/12/17 15:22:20;;;;;;;10.90;9.07;;;15.60;76.20;;;;;;4177062;28;20690;-72
2022/12/17 15:24:23;;;;;;;10.53;8.90;;;15.60;75.90;;;;;;4179598;28;20258;-72
2022/12/17 15:26:25;;;;;;;11.43;9.43;;;15.60;77.00;;;;;;4180451;28;20258;-72
2022/12/17 15:28:28;;;;;;;11.93;9.70;;;15.60;76.20;;;;;;4172697;28;20600;-72
2022/12/17 15:30:30;;;;;;;11.43;9.10;;;15.70;75.90;;;;;;4175002;28;20722;-72
2022/12/17 15:32:34;;;;;;;13.60;9.40;;;15.60;75.80;;;;;;4179905;28;20287;-72
2022/12/17 15:34:36;;;;;;;10.47;9.37;;;15.60;76.20;;;;;;4172312;28;20270;-72
2022/12/17 15:36:38;;;;;;;11.30;10.10;;;15.60;75.50;;;;;;4171800;28;20228;-72
2022/12/17 15:38:41;;;;;;;10.70;9.00;;;15.60;75.90;;;;;;4180192;28;20285;-72
2022/12/17 15:40:43;;;;;;;10.93;8.83;;;15.60;76.20;;;;;;4173212;28;20262;-72
2022/12/17 15:45:06;;;;;;;11.00;8.80;;;15.60;76.30;;;;;;4180300;28;20656;-72
2022/12/17 15:47:08;;;;;;;11.20;9.40;;;15.60;76.20;;;;;;4175381;28;20216;-72
2022/12/17 15:49:13;;;;;;;10.20;9.07;;;15.50;76.10;;;;;;4180239;28;20276;-72
2022/12/17 15:51:16;;;;;;;10.80;8.90;;;15.50;75.90;;;;;;4176741;28;20269;-72
2022/12/17 15:53:18;;;;;;;13.00;10.03;;;15.50;76.10;;;;;;4177582;28;20568;-72
2022/12/17 15:55:21;;;;;;;9.90;8.90;;;15.50;76.10;;;;;;4179772;28;20642;-72
2022/12/17 15:57:23;;;;;;;12.20;9.00;;;15.50;76.40;;;;;;4174511;28;20216;-72
2022/12/17 15:59:26;;;;;;;10.50;9.17;;;15.50;76.00;;;;;;4180122;28;20248;-72
2022/12/17 16:01:28;;;;;;;12.27;9.07;;;15.50;76.10;;;;;;4180324;28;20721;-72
2022/12/17 16:03:30;;;;;;;10.73;8.97;;;15.50;75.60;;;;;;4172797;28;20258;-77
2022/12/17 16:05:34;;;;;;;11.93;8.90;;;15.50;75.50;;;;;;4179611;28;20212;-77
2022/12/17 16:07:37;;;;;;;12.00;9.07;;;15.50;75.60;;;;;;4180349;28;20212;-77
2022/12/17 16:09:39;;;;;;;11.33;9.30;;;15.40;76.00;;;;;;4174192;28;20613;-76
2022/12/17 16:11:41;;;;;;;12.07;9.07;;;15.50;75.90;;;;;;4179844;28;20258;-77
2022/12/17 16:13:44;;;;;;;11.87;9.90;;;15.50;75.40;;;;;;4174018;28;20224;-77
2022/12/17 16:15:46;;;;;;;11.47;9.00;;;15.40;75.50;;;;;;4172861;28;20281;-72
2022/12/17 16:17:49;;;;;;;11.33;8.67;;;15.50;75.50;;;;;;4179544;28;20204;-72
2022/12/17 16:19:53;;;;;;;12.07;10.03;;;15.40;76.00;;;;;;4177045;28;20216;-72
2022/12/17 16:21:57;;;;;;;12.50;9.73;;;15.40;75.40;;;;;;4177595;28;20216;-72
2022/12/17 16:23:59;;;;;;;11.80;9.70;;;15.40;75.50;;;;;;4178820;28;20211;-72
2022/12/17 16:26:04;;;;;;;12.33;10.23;;;15.50;76.50;;;;;;4174025;28;20215;-72
2022/12/17 16:28:07;;;;;;;12.23;9.47;;;15.40;75.50;;;;;;4177518;28;20212;-72
2022/12/17 16:30:11;;;;;;;13.03;9.40;;;15.40;76.00;;;;;;4179908;28;20242;-72
2022/12/17 16:32:13;;;;;;;12.40;9.30;;;15.40;76.00;;;;;;4172415;28;20258;-72
2022/12/17 16:34:16;;;;;;;12.43;9.57;;;15.40;75.80;;;;;;4178364;28;20273;-72
2022/12/17 16:36:20;;;;;;;11.47;9.83;;;15.40;76.20;;;;;;4179237;28;20296;-72
2022/12/17 16:38:24;;;;;;;13.30;9.87;;;15.40;75.40;;;;;;4174040;28;20212;-72
2022/12/17 16:40:27;;;;;;;12.73;9.33;;;15.40;75.30;;;;;;4179395;28;20212;-72
2022/12/17 16:42:29;;;;;;;10.60;9.20;;;15.40;76.00;;;;;;4178317;28;20220;-72
2022/12/17 16:44:31;;;;;;;10.53;8.63;;;15.40;75.50;;;;;;4175173;28;20305;-72
2022/12/17 16:46:37;;;;;;;11.13;9.83;;;15.30;75.80;;;;;;4179331;28;20640;-72
2022/12/17 16:48:39;;;;;;;13.00;10.60;;;15.40;75.80;;;;;;4179272;28;20941;-72
2022/12/17 16:50:42;;;;;;;11.87;9.60;;;15.30;75.80;;;;;;4173575;28;20223;-72
2022/12/17 16:52:44;;;;;;;11.53;9.17;;;15.40;75.40;;;;;;4179121;28;20261;-72
2022/12/17 16:54:48;;;;;;;11.60;9.10;;;15.40;75.30;;;;;;4176359;28;20220;-72
2022/12/17 16:56:50;;;;;;;11.60;8.93;;;15.30;75.60;;;;;;4171761;28;20281;-72
2022/12/17 16:58:53;;;;;;;10.47;9.03;;;15.30;75.50;;;;;;4171015;28;20223;-72
2022/12/17 17:00:55;;;;;;;12.50;9.73;;;15.40;75.20;;;;;;4170565;28;21764;-72
2022/12/17 17:02:57;;;;;;;12.27;9.80;;;15.30;75.50;;;;;;4177095;28;20265;-72
2022/12/17 17:05:00;;;;;;;13.07;9.87;;;15.40;75.30;;;;;;4179103;28;20636;-72
2022/12/17 17:07:02;;;;;;;10.50;9.30;;;15.30;75.40;;;;;;4172693;28;20220;-72
2022/12/17 17:09:05;;;;;;;11.67;10.10;;;15.30;75.70;;;;;;4175689;28;20667;-72
2022/12/17 17:11:11;;;;;;;12.53;10.17;;;15.30;75.90;;;;;;4175195;28;20246;-72
2022/12/17 17:13:14;;;;;;;11.97;10.20;;;15.30;75.20;;;;;;4164963;28;20249;-72
2022/12/17 17:15:16;;;;;;;11.63;9.67;;;15.30;75.90;;;;;;4179035;28;20212;-72
2022/12/17 17:17:18;;;;;;;11.33;9.97;;;15.30;75.90;;;;;;4178982;28;20251;-72
2022/12/17 17:19:21;;;;;;;14.03;9.87;;;15.30;75.50;;;;;;4174027;28;20227;-72
2022/12/17 17:21:27;;;;;;;11.87;9.53;;;15.30;75.90;;;;;;4178551;28;20224;-72
2022/12/17 17:23:30;;;;;;;11.90;9.67;;;15.30;75.60;;;;;;4178952;28;20277;-72
2022/12/17 17:25:32;;;;;;;12.30;9.87;;;15.30;75.50;;;;;;4174964;28;20729;-72
2022/12/17 17:27:36;;;;;;;11.33;9.57;;;15.30;75.50;;;;;;4178599;28;20211;-72
2022/12/17 17:29:38;;;;;;;12.83;10.13;;;15.30;75.90;;;;;;4176974;28;20257;-72
2022/12/17 17:31:41;;;;;;;11.97;9.80;;;15.30;75.50;;;;;;4171114;28;20224;-72
2022/12/17 17:33:45;;;;;;;13.20;9.97;;;15.20;75.80;;;;;;4179220;28;20227;-72
2022/12/17 17:35:48;;;;;;;11.60;10.03;;;15.30;75.50;;;;;;4180993;28;20211;-72
2022/12/17 17:37:50;;;;;;;12.23;9.93;;;15.30;75.20;;;;;;4172577;28;20270;-72
2022/12/17 17:39:52;;;;;;;11.97;9.63;;;15.30;75.30;;;;;;4177281;28;20224;-72
2022/12/17 17:41:55;;;;;;;13.27;10.27;;;15.20;75.50;;;;;;4177188;28;20747;-72
2022/12/17 17:44:00;;;;;;;13.93;10.33;;;15.30;75.50;;;;;;4169525;28;20220;-72
2022/12/17 17:46:06;;;;;;;12.37;9.90;;;15.20;75.20;;;;;;4181591;28;20257;-72
2022/12/17 17:48:08;;;;;;;14.13;10.20;;;15.20;75.20;;;;;;4182289;28;20216;-72
2022/12/17 17:50:11;;;;;;;11.63;9.70;;;15.30;75.00;;;;;;4178143;28;20212;-72
2022/12/17 17:52:13;;;;;;;11.07;9.60;;;15.30;75.20;;;;;;4180340;28;20277;-72
2022/12/17 17:54:15;;;;;;;12.23;9.47;;;15.20;75.30;;;;;;4174766;28;20259;-72
2022/12/17 17:56:20;;;;;;;12.30;10.10;;;15.20;75.40;;;;;;4178084;28;20261;-72
2022/12/17 17:58:22;;;;;;;11.90;9.53;;;15.30;75.60;;;;;;4181976;28;20265;-72
2022/12/17 18:00:26;;;;;;;10.80;9.27;;;15.30;75.90;;;;;;4178103;28;20261;-72
2022/12/17 18:02:28;;;;;;;13.23;9.87;;;15.20;75.50;;;;;;4182058;28;20289;-72
2022/12/17 18:04:31;;;;;;;11.63;9.23;;;15.20;75.80;;;;;;4181966;28;20287;-72
2022/12/17 18:06:37;;;;;;;13.67;10.83;;;15.20;75.20;;;;;;4178462;28;20281;-72
2022/12/17 18:08:40;;;;;;;12.00;9.87;;;15.20;75.80;;;;;;4181734;28;20605;-72
2022/12/17 18:10:43;;;;;;;12.43;9.40;;;15.20;75.50;;;;;;4174156;28;20247;-72
2022/12/17 18:15:06;;;;;;;11.80;9.73;;;15.20;75.10;;;;;;4169797;28;20644;-72
2022/12/17 18:17:10;;;;;;;12.03;9.50;;;15.20;75.20;;;;;;4180009;28;20285;-72
2022/12/17 18:19:14;;;;;;;11.00;9.30;;;15.30;75.40;;;;;;4177764;28;20305;-72
2022/12/17 18:21:19;;;;;;;11.93;9.73;;;15.20;75.30;;;;;;4170005;28;20664;-72
2022/12/17 18:23:21;;;;;;;11.87;9.63;;;15.20;75.80;;;;;;4167919;28;20207;-72
2022/12/17 18:25:24;;;;;;;12.00;9.53;;;15.10;75.30;;;;;;4178530;28;20288;-72
2022/12/17 18:27:26;;;;;;;10.37;9.27;;;15.20;75.80;;;;;;4181599;28;20241;-72
2022/12/17 18:29:31;;;;;;;10.57;9.40;;;15.10;75.60;;;;;;4174145;28;20216;-72
2022/12/17 18:31:33;;;;;;;12.10;9.90;;;15.20;75.80;;;;;;4176606;28;20220;-72
2022/12/17 18:33:38;;;;;;;11.97;9.93;;;15.10;75.60;;;;;;4175252;28;20646;-72
2022/12/17 18:35:41;;;;;;;14.03;9.80;;;15.10;75.60;;;;;;4174239;28;20246;-72
2022/12/17 18:37:43;;;;;;;11.87;9.53;;;15.10;76.10;;;;;;4181261;28;20749;-72
2022/12/17 18:39:46;;;;;;;11.17;9.93;;;15.10;75.60;;;;;;4177625;28;20265;-72
2022/12/17 18:44:19;;;;;;;10.67;9.40;;;15.20;75.60;;;;;;4136233;28;20265;-72
2022/12/17 18:46:21;;;;;;;11.27;9.70;;;15.20;75.80;;;;;;4180543;28;20223;-72
2022/12/17 18:48:23;;;;;;;11.73;9.93;;;15.10;75.60;;;;;;4179645;28;20285;-72
2022/12/17 18:50:27;;;;;;;11.30;9.93;;;15.10;75.60;;;;;;4181582;28;20233;-72
2022/12/17 18:52:29;;;;;;;11.13;9.57;;;15.10;75.70;;;;;;4174832;28;20228;-72
2022/12/17 18:54:33;;;;;;;13.70;10.43;;;15.20;74.90;;;;;;4179155;28;20216;-72
2022/12/17 18:56:36;;;;;;;11.93;9.73;;;15.10;75.70;;;;;;4181355;28;20215;-72
2022/12/17 18:58:39;;;;;;;13.83;10.60;;;15.10;75.50;;;;;;4175730;28;20223;-72
2022/12/17 19:00:41;;;;;;;11.70;10.27;;;15.10;75.60;;;;;;4180944;28;20243;-72
2022/12/17 19:02:44;;;;;;;12.37;9.93;;;15.10;76.40;;;;;;4181006;28;20717;-72
2022/12/17 19:04:46;;;;;;;12.20;10.00;;;15.10;75.70;;;;;;4176955;28;20277;-72
2022/12/17 19:06:52;;;;;;;11.87;10.07;;;15.10;75.60;;;;;;4180784;28;20289;-72
2022/12/17 19:08:54;;;;;;;12.37;10.10;;;15.10;75.60;;;;;;4180944;28;20219;-72
2022/12/17 19:11:02;;;;;;;12.00;10.40;;;15.00;75.50;;;;;;4176318;28;20216;-72
2022/12/17 19:13:05;;;;;;;11.57;9.77;;;15.10;76.20;;;;;;4180591;28;20212;-72
2022/12/17 19:15:08;;;;;;;13.57;10.30;;;15.00;75.60;;;;;;4179680;28;20277;-72
2022/12/17 19:17:11;;;;;;;13.77;10.73;;;15.00;75.50;;;;;;4174434;28;20281;-72
2022/12/17 19:19:13;;;;;;;12.47;10.40;;;15.00;75.60;;;;;;4180759;28;20224;-72
2022/12/17 19:21:15;;;;;;;12.97;10.13;;;15.10;75.60;;;;;;4178163;28;20250;-72
2022/12/17 19:23:19;;;;;;;12.13;10.27;;;15.10;75.70;;;;;;4177269;28;20627;-72
2022/12/17 19:25:26;;;;;;;12.07;10.10;;;15.00;75.50;;;;;;4175509;28;20220;-72
2022/12/17 19:27:28;;;;;;;13.80;10.10;;;15.10;75.60;;;;;;4173163;28;20209;-72
2022/12/17 19:29:31;;;;;;;13.33;10.47;;;15.10;75.60;;;;;;4175998;28;20223;-72
2022/12/17 19:31:33;;;;;;;13.87;10.83;;;15.00;75.40;;;;;;4180307;28;20211;-72
2022/12/17 19:33:36;;;;;;;12.63;10.60;;;15.00;75.40;;;;;;4176765;28;20289;-72
2022/12/17 19:35:38;;;;;;;12.53;10.37;;;15.00;75.00;;;;;;4179087;28;20212;-76
2022/12/17 19:37:40;;;;;;;12.40;10.27;;;15.00;75.40;;;;;;4179881;28;20231;-76
2022/12/17 19:39:44;;;;;;;13.23;10.73;;;15.10;75.40;;;;;;4164328;28;20731;-77
2022/12/17 19:41:50;;;;;;;14.20;10.73;;;15.10;75.60;;;;;;4174127;28;20285;-76
2022/12/17 19:43:54;;;;;;;14.00;11.03;;;15.00;75.30;;;;;;4179579;28;20685;-77
2022/12/17 19:46:02;;;;;;;14.03;11.37;;;15.00;75.50;;;;;;4174309;28;20240;-76
2022/12/17 19:48:05;;;;;;;13.13;10.67;;;15.00;75.60;;;;;;4180467;28;20238;-77
2022/12/17 19:50:08;;;;;;;13.43;11.17;;;15.00;75.60;;;;;;4180458;28;20220;-77
2022/12/17 19:52:10;;;;;;;13.90;11.10;;;15.00;75.50;;;;;;4170320;28;20645;-76
2022/12/17 19:54:13;;;;;;;13.07;10.77;;;15.00;75.60;;;;;;4179076;28;20271;-77
2022/12/17 19:56:20;;;;;;;11.97;10.20;;;15.00;76.00;;;;;;4180206;28;20660;-77
2022/12/17 19:58:23;;;;;;;13.00;10.20;;;15.00;75.50;;;;;;4169872;28;20285;-77
2022/12/17 20:00:25;;;;;;;14.67;11.17;;;15.00;75.60;;;;;;4180086;28;20224;-77
2022/12/17 20:02:27;;;;;;;14.13;11.40;;;15.00;75.60;;;;;;4179577;28;20270;-77
2022/12/17 20:04:30;;;;;;;12.03;10.77;;;14.90;75.40;;;;;;4172750;28;20212;-77
2022/12/17 20:06:34;;;;;;;13.10;10.77;;;14.90;75.60;;;;;;4178757;28;20600;-77
2022/12/17 20:08:37;;;;;;;13.53;10.97;;;14.90;75.50;;;;;;4175606;28;20221;-77
2022/12/17 20:10:39;;;;;;;13.70;11.27;;;14.90;75.50;;;;;;4171714;28;20278;-77
2022/12/17 20:12:43;;;;;;;13.90;11.73;;;14.90;75.40;;;;;;4180262;28;20639;-77
2022/12/17 20:14:45;;;;;;;14.00;11.53;;;14.90;76.20;;;;;;4179829;28;20725;-77
2022/12/17 20:16:50;;;;;;;13.40;11.03;;;14.90;75.60;;;;;;4175320;28;20223;-77
2022/12/17 20:18:52;;;;;;;13.43;10.90;;;14.90;75.70;;;;;;4179225;28;20297;-77
2022/12/17 20:21:02;;;;;;;13.20;10.90;;;14.90;75.40;;;;;;4179975;28;20216;-77
2022/12/17 20:23:04;;;;;;;14.30;11.90;;;14.90;75.50;;;;;;4175424;28;20613;-77
2022/12/17 20:25:10;;;;;;;14.53;11.70;;;14.90;75.20;;;;;;4172315;28;20598;-77
2022/12/17 20:27:12;;;;;;;13.13;11.30;;;14.90;75.40;;;;;;4173644;28;20339;-77
2022/12/17 20:29:16;;;;;;;13.57;11.43;;;14.90;75.30;;;;;;4177234;28;20204;-77
2022/12/17 20:31:19;;;;;;;15.03;11.93;;;14.90;75.40;;;;;;4176628;28;20216;-77
2022/12/17 20:33:21;;;;;;;15.77;11.50;;;14.90;75.40;;;;;;4177302;28;20232;-76
2022/12/17 20:35:23;;;;;;;14.90;11.50;;;14.90;75.40;;;;;;4177256;28;20277;-77
2022/12/17 20:37:26;;;;;;;16.43;11.63;;;14.90;75.20;;;;;;4171941;28;20265;-77
2022/12/17 20:39:28;;;;;;;14.20;11.27;;;14.90;75.40;;;;;;4175142;28;20224;-77
2022/12/17 20:41:33;;;;;;;14.13;11.83;;;14.90;75.00;;;;;;4178759;28;20215;-77
2022/12/17 20:43:35;;;;;;;14.53;11.93;;;14.90;75.30;;;;;;4173779;28;20257;-77
2022/12/17 20:45:39;;;;;;;15.10;12.27;;;14.80;75.00;;;;;;4173650;28;20221;-76
2022/12/17 20:47:41;;;;;;;14.83;12.10;;;14.90;75.50;;;;;;4178890;28;20250;-77
2022/12/17 20:49:43;;;;;;;15.07;12.00;;;14.80;75.00;;;;;;4179284;28;20257;-77
2022/12/17 20:51:46;;;;;;;15.27;11.77;;;14.80;74.80;;;;;;4172486;28;20212;-77
2022/12/17 20:53:48;;;;;;;15.73;12.20;;;14.80;75.30;;;;;;4178899;28;20261;-77
2022/12/17 20:56:00;;;;;;;17.30;12.67;;;14.80;75.90;;;;;;4178878;28;20277;-76
2022/12/17 20:58:03;;;;;;;13.67;11.40;;;14.80;75.30;;;;;;4171817;28;20301;-77
2022/12/17 21:00:07;;;;;;;14.83;12.10;;;14.80;75.60;;;;;;4178827;28;20240;-76
2022/12/17 21:02:11;;;;;;;15.10;12.63;;;14.80;75.30;;;;;;4172654;28;20656;-77
2022/12/17 21:04:14;;;;;;;15.50;12.53;;;14.80;75.30;;;;;;4174938;28;20220;-77
2022/12/17 21:06:19;;;;;;;14.97;12.60;;;14.90;75.10;;;;;;4174276;28;20593;-77
2022/12/17 21:08:22;;;;;;;14.60;12.33;;;14.90;75.20;;;;;;4174009;28;20208;-77
2022/12/17 21:10:24;;;;;;;16.20;12.87;;;14.80;75.40;;;;;;4173496;28;20224;-77
2022/12/17 21:13:27;;;;;;;14.57;12.17;;;14.80;75.00;;;;;;4171141;28;20289;-77
2022/12/17 21:14:50;;;;;;;14.67;12.07;;;14.80;74.90;;;;;;4171218;28;20234;-77
2022/12/17 21:16:52;;;;;;;15.70;12.50;;;14.80;75.20;;;;;;4178817;28;20223;-76
2022/12/17 21:18:57;;;;;;;15.23;12.60;;;14.80;75.20;;;;;;4179254;28;21000;-76
2022/12/17 21:21:01;;;;;;;15.73;12.93;;;14.80;75.30;;;;;;4174588;28;20664;-77
2022/12/17 21:23:03;;;;;;;16.30;12.67;;;14.80;75.10;;;;;;4178782;28;20216;-77
2022/12/17 21:25:07;;;;;;;15.50;12.80;;;14.80;75.00;;;;;;4174420;28;20716;-77
2022/12/17 21:27:09;;;;;;;15.67;12.43;;;14.80;75.00;;;;;;4177666;28;20265;-77
2022/12/17 21:29:13;;;;;;;14.97;12.33;;;14.80;74.80;;;;;;4178635;28;20211;-77
2022/12/17 21:31:17;;;;;;;15.77;13.00;;;14.80;75.10;;;;;;4174530;28;20216;-77
2022/12/17 21:33:19;;;;;;;14.87;12.73;;;14.80;75.20;;;;;;4172584;28;20235;-77
2022/12/17 21:35:23;;;;;;;15.67;12.40;;;14.80;75.10;;;;;;4178969;28;20353;-77
2022/12/17 21:37:26;;;;;;;13.97;11.47;;;14.70;75.20;;;;;;4176993;28;20545;-77
2022/12/17 21:39:28;;;;;;;17.23;13.30;;;14.80;74.90;;;;;;4176879;28;20239;-77
2022/12/17 21:41:33;;;;;;;15.80;13.00;;;14.70;75.20;;;;;;4178813;28;20215;-77
2022/12/17 21:43:36;;;;;;;15.37;12.07;;;14.70;75.20;;;;;;4172027;28;20286;-77
2022/12/17 21:45:41;;;;;;;16.47;12.97;;;14.70;75.50;;;;;;4178595;28;20215;-76
2022/12/17 21:47:43;;;;;;;14.53;12.83;;;14.70;74.90;;;;;;4178576;28;20220;-77
2022/12/17 21:49:46;;;;;;;16.20;12.77;;;14.70;75.10;;;;;;4169184;28;20605;-77
2022/12/17 21:51:49;;;;;;;15.27;13.00;;;14.70;75.20;;;;;;4179070;28;20994;-77
2022/12/17 21:53:53;;;;;;;16.17;12.67;;;14.70;75.20;;;;;;4178016;28;20225;-77
2022/12/17 21:56:03;;;;;;;16.63;13.50;;;14.70;75.20;;;;;;4174964;28;20265;-77
2022/12/17 21:58:06;;;;;;;15.70;13.17;;;14.70;75.20;;;;;;4178823;28;20269;-77
2022/12/17 22:00:10;;;;;;;16.93;13.17;;;14.70;75.00;;;;;;4178557;28;20236;-77
2022/12/17 22:02:12;;;;;;;16.57;13.60;;;14.70;75.20;;;;;;4176709;28;20211;-77
2022/12/17 22:04:15;;;;;;;15.67;12.83;;;14.70;75.10;;;;;;4178566;28;20208;-77
2022/12/17 22:06:18;;;;;;;15.93;12.87;;;14.70;74.90;;;;;;4174969;28;20588;-77
2022/12/17 22:08:22;;;;;;;15.73;12.87;;;14.70;75.10;;;;;;4177065;28;20212;-77
2022/12/17 22:10:25;;;;;;;17.13;13.30;;;14.70;74.60;;;;;;4178209;28;20666;-77
2022/12/17 22:14:47;;;;;;;15.20;12.83;;;14.70;74.80;;;;;;4178199;28;20272;-77
2022/12/17 22:16:49;;;;;;;16.20;13.20;;;14.60;75.20;;;;;;4178502;28;20220;-77
2022/12/17 22:18:52;;;;;;;16.10;12.97;;;14.70;74.90;;;;;;4174410;28;20293;-77
2022/12/17 22:20:58;;;;;;;16.47;13.00;;;14.60;74.80;;;;;;4178918;28;20261;-77
2022/12/17 22:23:01;;;;;;;14.93;12.70;;;14.70;74.70;;;;;;4169957;28;20211;-77
2022/12/17 22:25:05;;;;;;;15.53;12.67;;;14.70;74.60;;;;;;4173191;28;20265;-78
2022/12/17 22:27:07;;;;;;;16.27;12.97;;;14.70;74.60;;;;;;4182023;28;20216;-77
2022/12/17 22:29:10;;;;;;;14.70;12.70;;;14.70;75.00;;;;;;4176976;28;20217;-78
2022/12/17 22:33:31;;;;;;;16.60;13.30;;;14.60;75.00;;;;;;4167480;28;20239;-78
2022/12/17 22:35:36;;;;;;;16.10;12.97;;;14.60;74.80;;;;;;4167001;28;20216;-77
2022/12/17 22:37:38;;;;;;;16.00;13.40;;;14.60;74.80;;;;;;4171391;28;20216;-77
2022/12/17 22:39:40;;;;;;;15.63;13.37;;;14.60;74.60;;;;;;4171276;28;20227;-77
2022/12/17 22:44:04;;;;;;;16.10;13.27;;;14.60;74.60;;;;;;4176311;28;20200;-77
2022/12/17 22:46:07;;;;;;;15.93;13.77;;;14.60;74.60;;;;;;4166774;28;20217;-77
2022/12/17 22:48:11;;;;;;;16.10;13.10;;;14.60;75.00;;;;;;4165614;28;20975;-77
2022/12/17 22:50:13;;;;;;;16.50;13.03;;;14.60;75.00;;;;;;4177868;28;20243;-77
2022/12/17 22:52:16;;;;;;;13.87;12.07;;;14.60;74.40;;;;;;4177347;28;20266;-77
2022/12/17 22:54:18;;;;;;;16.77;13.23;;;14.60;74.50;;;;;;4179038;28;20269;-77
2022/12/17 22:56:21;;;;;;;15.43;12.60;;;14.60;75.00;;;;;;4179568;28;20219;-77
2022/12/17 22:58:25;;;;;;;16.97;13.57;;;14.60;74.80;;;;;;4180928;28;20216;-77
2022/12/17 23:00:31;;;;;;;16.27;13.53;;;14.60;74.80;;;;;;4176690;28;20755;-77
2022/12/17 23:02:34;;;;;;;16.10;12.97;;;14.60;75.10;;;;;;4173055;28;20266;-76
2022/12/17 23:04:36;;;;;;;17.57;13.90;;;14.60;75.20;;;;;;4181221;28;20217;-77
2022/12/17 23:06:39;;;;;;;16.50;13.37;;;14.60;74.70;;;;;;4173321;28;20281;-77
2022/12/17 23:08:42;;;;;;;16.40;12.97;;;14.50;74.60;;;;;;4180750;28;20224;-77
2022/12/17 23:10:44;;;;;;;17.20;13.50;;;14.50;75.00;;;;;;4172922;28;20205;-77
2022/12/17 23:12:54;;;;;;;16.60;13.07;;;14.60;74.40;;;;;;4172038;28;20626;-79
2022/12/17 23:14:57;;;;;;;15.13;13.30;;;14.60;75.10;;;;;;4177890;28;20216;-77
2022/12/17 23:17:00;;;;;;;16.33;13.30;;;14.60;74.70;;;;;;4180503;28;20259;-77
2022/12/17 23:19:02;;;;;;;16.70;13.53;;;14.50;74.60;;;;;;4174628;28;20270;-77
2022/12/17 23:21:09;;;;;;;15.43;12.60;;;14.60;75.10;;;;;;4180368;28;20337;-77
2022/12/17 23:23:11;;;;;;;15.33;13.33;;;14.50;74.90;;;;;;4175245;28;20220;-77
2022/12/17 23:25:14;;;;;;;16.73;13.17;;;14.50;74.40;;;;;;4176890;28;20606;-77
2022/12/17 23:27:16;;;;;;;15.20;13.63;;;14.50;74.60;;;;;;4180684;28;20262;-77
2022/12/17 23:29:19;;;;;;;16.37;13.37;;;14.50;74.60;;;;;;4172820;28;20224;-77
2022/12/17 23:31:23;;;;;;;16.00;13.50;;;14.50;75.00;;;;;;4180124;28;20255;-77
2022/12/17 23:33:25;;;;;;;15.53;13.10;;;14.50;74.60;;;;;;4180305;28;20231;-77
2022/12/17 23:35:27;;;;;;;16.87;13.40;;;14.50;74.50;;;;;;4176784;28;20257;-77
2022/12/17 23:37:30;;;;;;;15.60;12.50;;;14.50;74.40;;;;;;4180692;28;20229;-77
2022/12/17 23:39:32;;;;;;;15.33;13.10;;;14.50;74.60;;;;;;4180383;28;20290;-77
2022/12/17 23:41:34;;;;;;;16.47;13.53;;;14.50;74.90;;;;;;4175043;28;20216;-77
2022/12/17 23:43:37;;;;;;;17.87;13.73;;;14.50;74.70;;;;;;4173130;28;20607;-77
2022/12/17 23:45:40;;;;;;;17.33;13.80;;;14.50;75.00;;;;;;4174196;28;20220;-77
2022/12/17 23:47:43;;;;;;;14.17;12.13;;;14.50;73.80;;;;;;4176209;28;20227;-77
2022/12/17 23:49:46;;;;;;;15.90;13.43;;;14.50;74.60;;;;;;4180654;28;20215;-77
2022/12/17 23:51:48;;;;;;;16.30;13.10;;;14.50;74.50;;;;;;4180168;28;20246;-77
2022/12/17 23:53:51;;;;;;;15.53;13.40;;;14.50;74.40;;;;;;4182291;28;20219;-77